Time;durP1;ratioP1;P1;durP2;ratioP2;P2;SDS_P1;SDS_P2;PMS_P1;PMS_P2;Temp;Humidity;BMP_temperature;BMP_pressure;BME280_temperature;BME280_humidity;BME280_pressure;Samples;Min_cycle;Max_cycle;Signal;HPM_P1;HPM_P2
2023/06/24 00:01:13;;;;;;;15.90;13.20;;;17.80;99.90;;;;;;5076665;28;20851;-68
2023/06/24 00:03:40;;;;;;;17.20;12.70;;;17.80;99.90;;;;;;5076792;28;20491;-68
2023/06/24 00:06:08;;;;;;;16.70;13.30;;;17.80;99.90;;;;;;5076108;28;20545;-68
2023/06/24 00:08:36;;;;;;;16.93;14.40;;;17.80;99.90;;;;;;5076545;28;20458;-68
2023/06/24 00:11:03;;;;;;;17.77;14.80;;;17.80;99.90;;;;;;5076638;28;20516;-68
2023/06/24 00:13:30;;;;;;;17.97;14.33;;;17.80;99.90;;;;;;5076406;28;20532;-68
2023/06/24 00:15:57;;;;;;;16.20;13.93;;;17.80;99.90;;;;;;5075977;28;20549;-67
2023/06/24 00:18:28;;;;;;;19.33;14.80;;;17.80;99.90;;;;;;5075956;28;21006;-68
2023/06/24 00:20:56;;;;;;;19.67;16.17;;;17.80;99.90;;;;;;5075818;28;20503;-67
2023/06/24 00:23:25;;;;;;;19.93;16.70;;;17.80;99.90;;;;;;5076012;28;20459;-67
2023/06/24 00:25:52;;;;;;;21.23;16.80;;;17.80;99.90;;;;;;5075796;28;20865;-67
2023/06/24 00:28:19;;;;;;;18.17;15.80;;;17.80;99.90;;;;;;5075862;28;20790;-67
2023/06/24 00:30:46;;;;;;;19.60;17.50;;;17.80;99.90;;;;;;5075648;28;20465;-68
2023/06/24 00:33:13;;;;;;;21.37;16.60;;;17.70;99.90;;;;;;5075626;28;20454;-67
2023/06/24 00:35:40;;;;;;;20.23;17.10;;;17.70;99.90;;;;;;5075584;28;20458;-68
2023/06/24 00:38:07;;;;;;;21.30;16.87;;;17.70;99.90;;;;;;5075365;28;20574;-68
2023/06/24 00:40:35;;;;;;;23.00;16.90;;;17.70;99.90;;;;;;5075527;28;20458;-68
2023/06/24 00:43:04;;;;;;;22.07;19.23;;;17.60;99.90;;;;;;5075454;28;20460;-67
2023/06/24 00:45:31;;;;;;;24.30;19.40;;;17.60;99.90;;;;;;5075822;28;20454;-67
2023/06/24 00:48:01;;;;;;;25.33;18.93;;;17.60;99.90;;;;;;5075556;28;20923;-67
2023/06/24 00:50:27;;;;;;;24.77;19.80;;;17.50;99.90;;;;;;5075950;28;20826;-67
2023/06/24 00:52:57;;;;;;;26.90;20.20;;;17.40;99.90;;;;;;5076286;28;20458;-67
2023/06/24 00:55:24;;;;;;;27.00;19.30;;;17.40;99.90;;;;;;5075380;28;20458;-67
2023/06/24 00:57:53;;;;;;;21.97;19.10;;;17.30;99.90;;;;;;5075452;28;20535;-67
2023/06/24 01:00:22;;;;;;;22.13;19.20;;;17.30;99.90;;;;;;5075680;28;20545;-67
2023/06/24 01:02:52;;;;;;;24.70;19.77;;;17.20;99.90;;;;;;5075512;28;20462;-67
2023/06/24 01:05:23;;;;;;;23.77;20.57;;;17.20;99.90;;;;;;5075645;28;20549;-67
2023/06/24 01:07:54;;;;;;;25.33;21.00;;;17.20;99.90;;;;;;5075284;28;20435;-67
2023/06/24 01:10:22;;;;;;;23.67;20.50;;;17.20;99.90;;;;;;5075571;28;20823;-67
2023/06/24 01:12:49;;;;;;;23.73;19.33;;;17.20;99.90;;;;;;5075381;28;20793;-67
2023/06/24 01:15:22;;;;;;;23.67;20.27;;;17.20;99.90;;;;;;5075349;28;20454;-67
2023/06/24 01:17:56;;;;;;;23.20;20.80;;;17.20;99.90;;;;;;5075586;28;20765;-67
2023/06/24 01:20:28;;;;;;;25.60;20.50;;;17.10;99.90;;;;;;5075290;28;20446;-67
2023/06/24 01:23:25;;;;;;;24.10;19.63;;;17.10;99.90;;;;;;5075659;28;20822;-67
2023/06/24 01:26:15;;;;;;;22.97;18.97;;;17.10;99.90;;;;;;5075710;28;20526;-67
2023/06/24 01:29:23;;;;;;;24.53;19.33;;;17.00;99.90;;;;;;5046013;28;20458;-67
2023/06/24 01:31:54;;;;;;;22.13;18.20;;;17.00;99.90;;;;;;5076057;28;20838;-67
2023/06/24 01:34:26;;;;;;;25.00;19.27;;;17.00;99.90;;;;;;5075550;28;20782;-67
2023/06/24 01:37:02;;;;;;;20.20;18.20;;;17.00;99.90;;;;;;5075714;28;20529;-67
2023/06/24 01:39:35;;;;;;;24.90;18.97;;;17.00;99.90;;;;;;5075812;28;20453;-67
2023/06/24 01:42:08;;;;;;;26.77;19.30;;;16.90;99.90;;;;;;5075865;28;20856;-67
2023/06/24 01:44:36;;;;;;;21.30;18.67;;;16.90;99.90;;;;;;5075385;28;20500;-67
2023/06/24 01:47:07;;;;;;;21.53;18.97;;;16.90;99.90;;;;;;5075075;28;20460;-67
2023/06/24 01:49:37;;;;;;;23.63;19.03;;;16.90;99.90;;;;;;5075504;28;20530;-67
2023/06/24 01:52:08;;;;;;;20.10;17.87;;;16.90;99.90;;;;;;5075783;28;20453;-68
2023/06/24 01:54:36;;;;;;;23.60;18.83;;;16.80;99.90;;;;;;5075536;28;20438;-68
2023/06/24 01:57:05;;;;;;;24.57;17.70;;;16.80;99.90;;;;;;5075362;28;20517;-67
2023/06/24 01:59:34;;;;;;;24.57;17.90;;;16.80;99.90;;;;;;5076278;28;20486;-67
2023/06/24 02:02:02;;;;;;;20.10;17.70;;;16.80;99.90;;;;;;5075261;28;20562;-67
2023/06/24 02:04:32;;;;;;;20.17;18.17;;;16.80;99.90;;;;;;5075302;28;20458;-67
2023/06/24 02:07:01;;;;;;;22.67;17.50;;;16.70;99.90;;;;;;5075844;28;20537;-67
2023/06/24 02:09:30;;;;;;;26.77;18.30;;;16.70;99.90;;;;;;5075462;28;20955;-67
2023/06/24 02:11:58;;;;;;;20.13;17.80;;;16.60;99.90;;;;;;5076215;28;20480;-66
2023/06/24 02:14:27;;;;;;;24.93;18.10;;;16.60;99.90;;;;;;5076962;28;21021;-67
2023/06/24 02:16:57;;;;;;;20.60;18.00;;;16.60;99.90;;;;;;5077399;28;20454;-66
2023/06/24 02:19:26;;;;;;;19.30;17.23;;;16.60;99.90;;;;;;5076900;28;20450;-67
2023/06/24 02:21:56;;;;;;;19.57;16.70;;;16.50;99.90;;;;;;5077285;28;20454;-66
2023/06/24 02:24:24;;;;;;;20.70;16.27;;;16.50;99.90;;;;;;5076855;28;20450;-67
2023/06/24 02:26:52;;;;;;;20.73;17.37;;;16.50;99.90;;;;;;5076899;28;20489;-67
2023/06/24 02:29:19;;;;;;;19.77;17.73;;;16.50;99.90;;;;;;5076646;28;20545;-67
2023/06/24 02:31:46;;;;;;;18.00;16.23;;;16.40;99.90;;;;;;5076290;28;20458;-67
2023/06/24 02:34:13;;;;;;;18.03;16.20;;;16.40;99.90;;;;;;5076202;28;20464;-67
2023/06/24 02:36:40;;;;;;;19.43;17.03;;;16.40;99.90;;;;;;5076005;28;20466;-67
2023/06/24 02:39:11;;;;;;;17.60;15.70;;;16.40;99.90;;;;;;5076796;28;20498;-68
2023/06/24 02:41:38;;;;;;;20.73;15.70;;;16.40;99.90;;;;;;5076790;28;20454;-68
2023/06/24 02:44:05;;;;;;;18.17;16.23;;;16.30;99.90;;;;;;5076284;28;20585;-68
2023/06/24 02:46:35;;;;;;;20.07;16.20;;;16.30;99.90;;;;;;5076132;28;20515;-68
2023/06/24 02:49:03;;;;;;;17.23;15.43;;;16.30;99.90;;;;;;5075626;28;20494;-68
2023/06/24 02:51:34;;;;;;;18.93;15.53;;;16.20;99.90;;;;;;5075731;28;20545;-68
2023/06/24 02:54:02;;;;;;;17.57;15.27;;;16.20;99.90;;;;;;5075554;28;20777;-68
2023/06/24 02:56:31;;;;;;;18.60;16.80;;;16.20;99.90;;;;;;5075892;28;20771;-68
2023/06/24 02:58:58;;;;;;;20.60;15.70;;;16.20;99.90;;;;;;5076062;28;20474;-68
2023/06/24 03:01:27;;;;;;;20.33;15.53;;;16.20;99.90;;;;;;5076364;28;20458;-68
2023/06/24 03:03:55;;;;;;;17.63;15.67;;;16.20;99.90;;;;;;5076931;28;20494;-68
2023/06/24 03:06:23;;;;;;;17.10;14.67;;;16.20;99.90;;;;;;5077198;28;20480;-68
2023/06/24 03:08:50;;;;;;;17.63;15.40;;;16.10;99.90;;;;;;5076634;28;20998;-68
2023/06/24 03:11:17;;;;;;;18.93;14.47;;;16.10;99.90;;;;;;5076881;28;20464;-67
2023/06/24 03:13:46;;;;;;;17.00;15.30;;;16.10;99.90;;;;;;5075802;28;20469;-67
2023/06/24 03:16:13;;;;;;;15.20;13.67;;;16.10;99.90;;;;;;5078192;28;20462;-67
2023/06/24 03:18:41;;;;;;;17.00;13.70;;;16.10;99.90;;;;;;5079143;28;20478;-67
2023/06/24 03:21:09;;;;;;;18.07;14.97;;;16.10;99.90;;;;;;5079179;28;20454;-67
2023/06/24 03:23:35;;;;;;;16.13;14.13;;;16.10;99.90;;;;;;5078859;28;20949;-69
2023/06/24 03:26:03;;;;;;;15.87;14.23;;;16.10;99.90;;;;;;5079400;28;20578;-67
2023/06/24 03:28:31;;;;;;;18.43;15.17;;;16.10;99.90;;;;;;5079159;28;20465;-67
2023/06/24 03:30:59;;;;;;;16.13;14.17;;;16.00;99.90;;;;;;5079331;28;20458;-67
2023/06/24 03:33:26;;;;;;;18.40;14.57;;;16.10;99.90;;;;;;5078623;28;20464;-67
2023/06/24 03:35:54;;;;;;;16.47;13.80;;;16.10;99.90;;;;;;5078899;28;20927;-67
2023/06/24 03:38:22;;;;;;;20.17;13.97;;;16.10;99.90;;;;;;5079981;28;20497;-67
2023/06/24 03:40:49;;;;;;;16.17;14.17;;;16.20;99.90;;;;;;5079907;28;20923;-67
2023/06/24 03:43:15;;;;;;;17.80;13.37;;;16.10;99.90;;;;;;5080034;28;20476;-67
2023/06/24 03:45:42;;;;;;;22.33;14.17;;;16.10;99.90;;;;;;5080706;28;20501;-67
2023/06/24 03:48:14;;;;;;;19.80;13.87;;;16.00;99.90;;;;;;5081071;28;20553;-67
2023/06/24 03:50:41;;;;;;;15.63;13.93;;;16.00;99.90;;;;;;5080976;28;20449;-67
2023/06/24 03:53:10;;;;;;;18.23;13.53;;;15.90;99.90;;;;;;5080396;28;20470;-67
2023/06/24 03:55:37;;;;;;;22.17;14.67;;;15.90;99.90;;;;;;5080798;28;20523;-67
2023/06/24 03:58:04;;;;;;;17.23;14.40;;;15.80;99.90;;;;;;5080443;28;20538;-67
2023/06/24 04:00:31;;;;;;;19.40;14.43;;;15.80;99.90;;;;;;5082060;28;20465;-67
2023/06/24 04:03:01;;;;;;;17.37;14.20;;;15.80;99.90;;;;;;5081776;28;20523;-67
2023/06/24 04:05:29;;;;;;;18.73;14.27;;;15.80;99.90;;;;;;5082262;28;20458;-67
2023/06/24 04:07:56;;;;;;;16.60;13.97;;;15.80;99.90;;;;;;5081252;28;20449;-67
2023/06/24 04:10:23;;;;;;;17.43;15.00;;;15.80;99.90;;;;;;5080464;28;20497;-67
2023/06/24 04:12:52;;;;;;;17.00;14.20;;;15.90;99.90;;;;;;5080695;28;20458;-67
2023/06/24 04:15:19;;;;;;;19.40;14.53;;;15.80;99.90;;;;;;5082015;28;20518;-67
2023/06/24 04:17:46;;;;;;;20.63;14.20;;;15.70;99.90;;;;;;5081070;28;20538;-67
2023/06/24 04:20:13;;;;;;;20.23;15.07;;;15.70;99.90;;;;;;5081862;28;20486;-67
2023/06/24 04:22:42;;;;;;;17.80;14.57;;;15.70;99.90;;;;;;5080624;28;20514;-67
2023/06/24 04:25:10;;;;;;;17.50;14.93;;;15.70;99.90;;;;;;5079919;28;20450;-67
2023/06/24 04:27:37;;;;;;;17.10;15.13;;;15.70;99.90;;;;;;5080533;28;20519;-67
2023/06/24 04:30:05;;;;;;;20.97;13.97;;;15.60;99.90;;;;;;5080854;28;20454;-67
2023/06/24 04:32:32;;;;;;;19.00;14.80;;;15.60;99.90;;;;;;5081310;28;20842;-67
2023/06/24 04:35:00;;;;;;;19.37;15.80;;;15.60;99.90;;;;;;5080152;28;20458;-67
2023/06/24 04:37:27;;;;;;;18.97;15.13;;;15.60;99.90;;;;;;5079851;28;20509;-67
2023/06/24 04:39:56;;;;;;;17.80;13.50;;;15.60;99.90;;;;;;5080283;28;20866;-67
2023/06/24 04:42:26;;;;;;;17.60;13.63;;;15.60;99.90;;;;;;5079551;28;20458;-67
2023/06/24 04:44:52;;;;;;;17.03;14.60;;;15.60;99.90;;;;;;5079512;28;20850;-67
2023/06/24 04:47:19;;;;;;;20.73;14.30;;;15.50;99.90;;;;;;5079743;28;20958;-67
2023/06/24 04:49:46;;;;;;;16.97;15.13;;;15.50;99.90;;;;;;5080229;28;20460;-67
2023/06/24 04:52:14;;;;;;;18.60;14.50;;;15.60;99.90;;;;;;5078736;28;20465;-67
2023/06/24 04:54:41;;;;;;;21.07;16.00;;;15.70;99.90;;;;;;5079194;28;20529;-67
2023/06/24 04:57:10;;;;;;;20.40;14.20;;;15.70;99.90;;;;;;5078246;28;20494;-66
2023/06/24 04:59:38;;;;;;;19.90;14.00;;;15.70;99.90;;;;;;5078569;28;20481;-66
2023/06/24 05:02:05;;;;;;;20.60;14.57;;;15.80;99.90;;;;;;5078592;28;20457;-67
2023/06/24 05:04:32;;;;;;;17.90;14.93;;;15.80;99.90;;;;;;5078766;28;20550;-67
2023/06/24 05:07:01;;;;;;;16.80;13.40;;;15.80;99.90;;;;;;5078552;28;20544;-67
2023/06/24 05:09:28;;;;;;;23.10;13.80;;;15.80;99.90;;;;;;5078249;28;20478;-67
2023/06/24 05:11:55;;;;;;;18.70;14.10;;;15.90;99.90;;;;;;5078482;28;20950;-67
2023/06/24 05:14:23;;;;;;;16.23;13.63;;;16.00;99.90;;;;;;5079144;28;20454;-66
2023/06/24 05:16:50;;;;;;;19.17;13.80;;;16.00;99.90;;;;;;5079251;28;20478;-67
2023/06/24 05:19:17;;;;;;;15.10;13.50;;;16.00;99.90;;;;;;5079396;28;20489;-66
2023/06/24 05:21:44;;;;;;;15.87;13.33;;;16.00;99.90;;;;;;5078763;28;20536;-67
2023/06/24 05:24:11;;;;;;;14.60;13.03;;;16.00;99.90;;;;;;5078318;28;20466;-66
2023/06/24 05:26:38;;;;;;;18.53;13.80;;;16.00;99.90;;;;;;5078167;28;20553;-67
2023/06/24 05:29:04;;;;;;;18.10;13.20;;;16.00;99.90;;;;;;5078943;28;20454;-67
2023/06/24 05:31:33;;;;;;;14.70;13.10;;;16.00;99.90;;;;;;5078589;28;20485;-67
2023/06/24 05:34:00;;;;;;;17.23;12.73;;;16.10;99.90;;;;;;5079364;28;20994;-67
2023/06/24 05:36:26;;;;;;;14.50;12.97;;;16.10;99.90;;;;;;5079107;28;20458;-67
2023/06/24 05:38:53;;;;;;;15.90;13.33;;;16.10;99.90;;;;;;5078534;28;20538;-67
2023/06/24 05:41:23;;;;;;;16.20;12.23;;;16.20;99.90;;;;;;5078837;28;20513;-67
2023/06/24 05:43:50;;;;;;;14.67;12.37;;;16.20;99.90;;;;;;5079179;28;20461;-67
2023/06/24 05:46:20;;;;;;;15.90;13.10;;;16.30;99.90;;;;;;5079290;28;20545;-66
2023/06/24 05:48:48;;;;;;;15.70;13.23;;;16.30;99.90;;;;;;5077623;28;20497;-66
2023/06/24 05:51:18;;;;;;;14.60;12.33;;;16.40;99.90;;;;;;5078205;28;20549;-67
2023/06/24 05:53:48;;;;;;;17.50;14.13;;;16.40;99.90;;;;;;5078473;28;20485;-67
2023/06/24 05:56:15;;;;;;;16.13;13.10;;;16.40;99.90;;;;;;5079258;28;20454;-67
2023/06/24 05:58:44;;;;;;;14.13;11.37;;;16.50;99.90;;;;;;5077906;28;20565;-67
2023/06/24 06:01:11;;;;;;;14.47;12.33;;;16.60;99.90;;;;;;5078012;28;20556;-68
2023/06/24 06:03:38;;;;;;;14.77;11.33;;;16.70;99.90;;;;;;5077643;28;20458;-68
2023/06/24 06:06:06;;;;;;;14.30;11.20;;;16.80;99.90;;;;;;5078329;28;20536;-66
2023/06/24 06:08:33;;;;;;;17.70;13.20;;;16.80;99.90;;;;;;5077249;28;20484;-66
2023/06/24 06:11:02;;;;;;;18.37;11.27;;;16.80;99.90;;;;;;5077537;28;20469;-66
2023/06/24 06:13:28;;;;;;;14.07;11.50;;;16.90;99.90;;;;;;5077359;28;20454;-66
2023/06/24 06:15:55;;;;;;;17.33;11.53;;;16.80;99.90;;;;;;5076762;28;20537;-66
2023/06/24 06:18:22;;;;;;;14.90;11.40;;;16.80;99.90;;;;;;5076845;28;20950;-67
2023/06/24 06:20:49;;;;;;;16.27;11.80;;;16.80;99.90;;;;;;5078104;28;20541;-66
2023/06/24 06:23:18;;;;;;;13.37;11.97;;;16.80;99.90;;;;;;5077716;28;20454;-67
2023/06/24 06:25:45;;;;;;;14.47;11.03;;;16.80;99.90;;;;;;5078428;28;20454;-67
2023/06/24 06:28:12;;;;;;;13.80;11.10;;;16.80;99.90;;;;;;5078664;28;20839;-67
2023/06/24 06:30:39;;;;;;;13.93;11.90;;;16.90;99.90;;;;;;5078245;28;20454;-67
2023/06/24 06:33:09;;;;;;;22.70;12.33;;;17.00;99.90;;;;;;5078329;28;20462;-67
2023/06/24 06:35:36;;;;;;;12.30;11.10;;;17.10;99.90;;;;;;5077380;28;20490;-67
2023/06/24 06:38:03;;;;;;;12.73;11.30;;;17.20;99.90;;;;;;5076354;28;20529;-67
2023/06/24 06:40:31;;;;;;;13.03;11.20;;;17.20;99.90;;;;;;5077234;28;20514;-66
2023/06/24 06:42:58;;;;;;;14.07;11.90;;;17.20;99.90;;;;;;5077317;28;20489;-67
2023/06/24 06:45:25;;;;;;;13.77;11.73;;;17.20;99.90;;;;;;5076795;28;20533;-68
2023/06/24 06:47:52;;;;;;;14.00;11.50;;;17.30;99.90;;;;;;5077004;28;20450;-66
2023/06/24 06:50:19;;;;;;;12.97;10.83;;;17.30;99.90;;;;;;5080081;28;20446;-68
2023/06/24 06:52:46;;;;;;;20.20;10.70;;;17.50;99.90;;;;;;5079573;28;20973;-68
2023/06/24 06:55:13;;;;;;;11.20;10.00;;;17.60;99.90;;;;;;5079201;28;21013;-68
2023/06/24 06:57:41;;;;;;;16.50;10.30;;;17.60;99.90;;;;;;5079472;28;20882;-66
2023/06/24 07:00:09;;;;;;;12.07;9.87;;;17.60;99.90;;;;;;5080915;28;20498;-67
2023/06/24 07:02:36;;;;;;;13.90;10.30;;;17.70;99.90;;;;;;5079949;28;20458;-67
2023/06/24 07:05:03;;;;;;;12.20;10.40;;;17.70;99.90;;;;;;5080286;28;20496;-68
2023/06/24 07:07:30;;;;;;;11.60;9.67;;;17.80;99.90;;;;;;5080540;28;20537;-68
2023/06/24 07:09:56;;;;;;;11.60;10.40;;;17.90;99.90;;;;;;5080575;28;20787;-67
2023/06/24 07:12:23;;;;;;;12.13;9.80;;;17.90;99.90;;;;;;5080531;28;20868;-67
2023/06/24 07:14:52;;;;;;;14.03;8.90;;;18.00;99.90;;;;;;5080014;28;20852;-67
2023/06/24 07:17:19;;;;;;;10.10;8.80;;;18.10;99.90;;;;;;5078954;28;20458;-66
2023/06/24 07:19:46;;;;;;;11.23;8.80;;;18.10;99.90;;;;;;5079361;28;20470;-66
2023/06/24 07:22:14;;;;;;;10.27;9.17;;;18.10;99.90;;;;;;5079656;28;20950;-66
2023/06/24 07:24:41;;;;;;;14.60;8.90;;;18.20;99.90;;;;;;5079978;28;20454;-67
2023/06/24 07:27:07;;;;;;;10.50;9.00;;;18.30;99.90;;;;;;5079380;28;20781;-67
2023/06/24 07:29:34;;;;;;;9.43;8.53;;;18.30;99.90;;;;;;5079801;28;20454;-67
2023/06/24 07:32:03;;;;;;;10.43;8.50;;;18.50;99.90;;;;;;5079950;28;20458;-67
2023/06/24 07:34:31;;;;;;;10.00;8.80;;;18.50;99.90;;;;;;5078641;28;20454;-67
2023/06/24 07:36:58;;;;;;;10.80;9.20;;;18.50;99.90;;;;;;5078876;28;20478;-67
2023/06/24 07:39:27;;;;;;;10.57;9.10;;;18.40;99.90;;;;;;5080283;28;20462;-67
2023/06/24 07:41:57;;;;;;;10.00;9.10;;;18.30;99.90;;;;;;5079643;28;20517;-66
2023/06/24 07:44:23;;;;;;;13.27;7.70;;;18.30;99.90;;;;;;5079881;28;20497;-67
2023/06/24 07:46:51;;;;;;;9.93;7.63;;;18.40;99.90;;;;;;5080099;28;20458;-67
2023/06/24 07:49:19;;;;;;;8.07;7.37;;;18.50;99.90;;;;;;5080999;28;20461;-67
2023/06/24 07:51:49;;;;;;;9.70;7.40;;;18.50;99.90;;;;;;5079553;28;20454;-67
2023/06/24 07:54:16;;;;;;;9.50;7.00;;;18.50;99.90;;;;;;5081787;28;20486;-66
2023/06/24 07:56:43;;;;;;;7.87;6.57;;;18.60;99.90;;;;;;5079947;28;20493;-66
2023/06/24 07:59:10;;;;;;;7.70;6.57;;;18.60;99.90;;;;;;5082098;28;20589;-67
2023/06/24 08:01:37;;;;;;;12.93;6.60;;;18.70;99.90;;;;;;5082593;28;20887;-66
2023/06/24 08:04:04;;;;;;;9.83;6.77;;;18.70;99.90;;;;;;5079457;28;21039;-66
2023/06/24 08:06:32;;;;;;;8.47;6.20;;;18.60;99.90;;;;;;5078721;28;20533;-68
2023/06/24 08:08:59;;;;;;;11.50;7.07;;;18.60;99.90;;;;;;5077254;28;20463;-67
2023/06/24 08:11:26;;;;;;;10.00;5.87;;;18.60;99.90;;;;;;5077114;28;20486;-67
2023/06/24 08:13:53;;;;;;;9.13;7.13;;;18.60;99.90;;;;;;5076586;28;20454;-67
2023/06/24 08:16:20;;;;;;;5.93;5.43;;;18.70;99.90;;;;;;5077762;28;20749;-67
2023/06/24 08:18:47;;;;;;;5.90;5.33;;;18.80;99.90;;;;;;5077071;28;20569;-67
2023/06/24 08:21:14;;;;;;;7.50;6.10;;;18.90;99.90;;;;;;5076581;28;20556;-67
2023/06/24 08:23:42;;;;;;;6.73;6.13;;;18.90;99.90;;;;;;5078356;28;20931;-67
2023/06/24 08:26:09;;;;;;;7.53;6.50;;;18.90;99.90;;;;;;5079156;28;20545;-67
2023/06/24 08:28:36;;;;;;;6.90;6.20;;;18.90;99.90;;;;;;5079602;28;20546;-67
2023/06/24 08:31:03;;;;;;;6.80;5.93;;;19.00;99.90;;;;;;5077786;28;20915;-67
2023/06/24 08:33:30;;;;;;;6.20;5.60;;;19.10;99.90;;;;;;5076370;28;20900;-67
2023/06/24 08:35:57;;;;;;;6.60;5.70;;;19.00;99.90;;;;;;5077159;28;20489;-67
2023/06/24 08:38:24;;;;;;;7.03;6.33;;;19.00;99.90;;;;;;5076670;28;20490;-67
2023/06/24 08:40:54;;;;;;;6.63;6.03;;;19.00;99.90;;;;;;5076239;28;20973;-67
2023/06/24 08:43:21;;;;;;;6.73;5.93;;;19.10;99.90;;;;;;5077591;28;20501;-67
2023/06/24 08:45:48;;;;;;;6.53;5.60;;;19.20;99.90;;;;;;5078208;28;20450;-68
2023/06/24 08:48:15;;;;;;;7.10;5.70;;;19.20;99.90;;;;;;5079503;28;20538;-67
2023/06/24 08:50:47;;;;;;;6.30;5.70;;;19.30;99.90;;;;;;5078792;28;20518;-67
2023/06/24 08:53:14;;;;;;;6.77;6.07;;;19.40;99.90;;;;;;5076380;28;20514;-67
2023/06/24 08:55:44;;;;;;;10.40;5.03;;;19.40;99.90;;;;;;5076460;28;20496;-67
2023/06/24 08:58:12;;;;;;;6.20;5.40;;;19.30;99.90;;;;;;5076083;28;20502;-67
2023/06/24 09:00:39;;;;;;;6.60;5.90;;;19.30;99.90;;;;;;5076339;28;20478;-67
2023/06/24 09:03:06;;;;;;;6.77;5.63;;;19.30;99.90;;;;;;5078914;28;20458;-68
2023/06/24 09:05:33;;;;;;;6.13;5.53;;;19.40;99.90;;;;;;5079644;28;20838;-68
2023/06/24 09:07:59;;;;;;;7.53;5.93;;;19.50;99.90;;;;;;5079110;28;20493;-68
2023/06/24 09:10:34;;;;;;;11.33;6.10;;;19.70;99.90;;;;;;5076577;28;20633;-67
2023/06/24 09:13:01;;;;;;;7.00;6.03;;;19.80;99.90;;;;;;5077037;28;20548;-68
2023/06/24 09:15:32;;;;;;;5.37;4.87;;;19.80;99.90;;;;;;5075277;28;20541;-67
2023/06/24 09:18:00;;;;;;;10.40;6.17;;;19.40;99.90;;;;;;5075829;28;20435;-67
2023/06/24 09:20:27;;;;;;;6.60;5.47;;;19.50;99.90;;;;;;5076998;28;20489;-67
2023/06/24 09:23:00;;;;;;;6.53;5.83;;;19.50;99.90;;;;;;5077209;28;20557;-67
2023/06/24 09:25:27;;;;;;;9.60;6.43;;;19.60;99.90;;;;;;5076950;28;20765;-69
2023/06/24 09:27:55;;;;;;;6.97;6.30;;;19.70;99.90;;;;;;5076726;28;20492;-66
2023/06/24 09:30:23;;;;;;;6.90;6.27;;;19.80;99.90;;;;;;5075740;28;20462;-68
2023/06/24 09:32:53;;;;;;;7.33;6.53;;;19.80;99.90;;;;;;5075400;28;20895;-67
2023/06/24 09:35:21;;;;;;;5.87;5.13;;;19.90;99.90;;;;;;5075047;28;20541;-67
2023/06/24 09:37:52;;;;;;;8.40;5.30;;;19.90;99.90;;;;;;5076036;28;20496;-67
2023/06/24 09:40:20;;;;;;;7.07;5.57;;;19.80;99.90;;;;;;5077052;28;20965;-67
2023/06/24 09:42:52;;;;;;;6.10;5.00;;;19.80;99.90;;;;;;5077308;28;20442;-67
2023/06/24 09:45:27;;;;;;;5.77;4.87;;;19.80;99.90;;;;;;5076630;28;21009;-67
2023/06/24 09:47:56;;;;;;;5.67;5.07;;;20.00;99.90;;;;;;5077117;28;20914;-68
2023/06/24 09:50:23;;;;;;;9.37;5.20;;;19.90;99.90;;;;;;5077222;28;20545;-67
2023/06/24 09:52:51;;;;;;;5.73;4.93;;;19.90;99.90;;;;;;5078530;28;20458;-67
2023/06/24 09:55:19;;;;;;;6.27;5.40;;;20.10;99.90;;;;;;5077915;28;20537;-67
2023/06/24 09:57:47;;;;;;;6.63;4.97;;;20.10;99.90;;;;;;5076478;28;20545;-68
2023/06/24 10:00:17;;;;;;;6.27;5.10;;;20.20;99.90;;;;;;5075973;28;20482;-67
2023/06/24 10:02:45;;;;;;;5.80;4.80;;;20.10;99.90;;;;;;5076313;28;21029;-68
2023/06/24 10:05:14;;;;;;;11.83;5.33;;;20.20;99.90;;;;;;5077739;28;20469;-67
2023/06/24 10:07:41;;;;;;;5.40;4.20;;;20.20;99.90;;;;;;5077455;28;20454;-66
2023/06/24 10:10:11;;;;;;;6.93;4.53;;;20.20;99.90;;;;;;5076888;28;20465;-69
2023/06/24 10:12:41;;;;;;;5.23;4.63;;;20.20;99.90;;;;;;5076062;28;20454;-67
2023/06/24 10:15:09;;;;;;;6.07;4.17;;;20.20;99.90;;;;;;5076288;28;20456;-67
2023/06/24 10:17:36;;;;;;;6.00;4.17;;;20.20;99.90;;;;;;5076175;28;20553;-67
2023/06/24 10:20:06;;;;;;;5.27;4.37;;;20.20;99.90;;;;;;5074482;28;21033;-67
2023/06/24 10:22:36;;;;;;;4.97;4.47;;;20.30;99.90;;;;;;5075249;28;20458;-67
2023/06/24 10:25:06;;;;;;;4.93;4.20;;;20.40;99.90;;;;;;5078891;28;20465;-67
2023/06/24 10:27:42;;;;;;;5.50;4.20;;;20.50;99.90;;;;;;5079062;28;20442;-67
2023/06/24 10:30:09;;;;;;;7.13;4.77;;;20.60;99.90;;;;;;5079359;28;20759;-68
2023/06/24 10:32:42;;;;;;;7.67;4.60;;;20.60;99.90;;;;;;5080531;28;20529;-68
2023/06/24 10:35:24;;;;;;;5.17;4.50;;;20.70;99.90;;;;;;5080052;28;20534;-68
2023/06/24 10:37:57;;;;;;;5.37;4.87;;;20.80;99.90;;;;;;5080224;28;20536;-67
2023/06/24 10:40:38;;;;;;;7.63;5.17;;;20.90;99.90;;;;;;5079004;28;20498;-67
2023/06/24 10:43:26;;;;;;;4.63;4.20;;;20.80;99.90;;;;;;5080224;28;20462;-68
2023/06/24 10:45:55;;;;;;;5.83;4.93;;;20.90;99.90;;;;;;5079920;28;20449;-68
2023/06/24 10:48:22;;;;;;;8.20;4.63;;;20.90;99.90;;;;;;5080064;28;20458;-66
2023/06/24 10:50:51;;;;;;;6.97;6.27;;;20.90;99.90;;;;;;5080302;28;20497;-67
2023/06/24 10:53:24;;;;;;;6.20;4.80;;;21.10;99.90;;;;;;5079421;28;20450;-69
2023/06/24 10:55:51;;;;;;;5.10;4.40;;;21.10;99.90;;;;;;5078924;28;20536;-68
2023/06/24 10:58:21;;;;;;;4.63;4.23;;;21.10;99.90;;;;;;5078365;28;20574;-66
2023/06/24 11:00:49;;;;;;;8.57;5.00;;;21.20;99.90;;;;;;5078299;28;20477;-68
2023/06/24 11:03:18;;;;;;;5.80;5.30;;;21.20;99.90;;;;;;5078007;28;20910;-68
2023/06/24 11:05:46;;;;;;;4.90;4.40;;;21.40;99.90;;;;;;5078257;28;20528;-67
2023/06/24 11:08:13;;;;;;;6.30;4.60;;;21.50;99.90;;;;;;5078867;28;20549;-68
2023/06/24 11:10:50;;;;;;;6.40;5.40;;;21.50;99.90;;;;;;5078802;28;20450;-68
2023/06/24 11:13:21;;;;;;;5.57;4.13;;;21.50;99.90;;;;;;5077742;28;20446;-68
2023/06/24 11:15:48;;;;;;;7.60;4.80;;;21.50;99.90;;;;;;5077239;28;20907;-68
2023/06/24 11:18:14;;;;;;;5.30;4.90;;;21.50;99.90;;;;;;5077167;28;20936;-68
2023/06/24 11:20:42;;;;;;;5.30;4.90;;;21.70;99.90;;;;;;5077270;28;20525;-68
2023/06/24 11:23:12;;;;;;;6.47;5.17;;;21.90;99.90;;;;;;5077455;28;20454;-67
2023/06/24 11:25:41;;;;;;;6.33;5.73;;;21.90;99.90;;;;;;5078715;28;20957;-68
2023/06/24 11:28:15;;;;;;;5.37;4.47;;;22.40;99.90;;;;;;5077810;28;20473;-67
2023/06/24 11:30:42;;;;;;;5.20;4.70;;;23.00;99.90;;;;;;5077664;28;20448;-67
2023/06/24 11:33:09;;;;;;;5.70;4.90;;;23.70;99.90;;;;;;5078327;28;20549;-68
2023/06/24 11:35:37;;;;;;;5.20;4.70;;;24.40;99.90;;;;;;5076395;28;20780;-68
2023/06/24 11:38:04;;;;;;;7.40;4.20;;;25.40;99.90;;;;;;5076725;28;20478;-68
2023/06/24 11:40:35;;;;;;;4.40;4.00;;;26.40;99.90;;;;;;5076448;28;20660;-68
2023/06/24 11:43:05;;;;;;;4.43;4.03;;;27.30;99.90;;;;;;5076816;28;20443;-68
2023/06/24 11:45:33;;;;;;;7.33;4.40;;;27.60;99.90;;;;;;5076490;28;20563;-68
2023/06/24 11:48:07;;;;;;;4.40;4.00;;;27.90;94.40;;;;;;5076298;28;20464;-68
2023/06/24 11:50:37;;;;;;;4.20;3.80;;;27.10;92.40;;;;;;5076662;28;20434;-68
2023/06/24 11:53:04;;;;;;;5.37;4.70;;;26.60;92.80;;;;;;5076734;28;20458;-66
2023/06/24 11:55:34;;;;;;;4.63;3.87;;;26.80;99.90;;;;;;5076956;28;20454;-66
2023/06/24 11:58:04;;;;;;;4.30;3.97;;;27.50;99.90;;;;;;5076966;28;20805;-66
2023/06/24 12:00:35;;;;;;;4.80;4.30;;;28.40;95.50;;;;;;5078129;28;20467;-66
2023/06/24 12:03:05;;;;;;;4.73;3.77;;;29.00;93.20;;;;;;5078408;28;20569;-67
2023/06/24 12:05:32;;;;;;;5.10;4.17;;;29.60;92.10;;;;;;5078216;28;20482;-66
2023/06/24 12:08:01;;;;;;;5.63;3.70;;;30.10;89.10;;;;;;5078482;28;20767;-66
2023/06/24 12:10:29;;;;;;;5.60;3.80;;;30.50;79.70;;;;;;5077445;28;20464;-67
2023/06/24 12:12:57;;;;;;;6.37;3.90;;;30.40;61.70;;;;;;5077646;28;20458;-66
2023/06/24 12:15:24;;;;;;;5.63;4.47;;;30.40;65.20;;;;;;5077373;28;20468;-66
2023/06/24 12:17:52;;;;;;;7.80;3.57;;;30.80;69.40;;;;;;5077303;28;20515;-67
2023/06/24 12:20:21;;;;;;;4.23;3.80;;;31.30;70.20;;;;;;5077820;28;20569;-66
2023/06/24 12:22:50;;;;;;;4.60;3.67;;;31.10;54.60;;;;;;5076810;28;20453;-67
2023/06/24 12:25:18;;;;;;;5.60;4.20;;;29.70;51.60;;;;;;5075947;28;20510;-67
2023/06/24 12:27:45;;;;;;;5.53;4.03;;;28.80;60.90;;;;;;5075911;28;20481;-67
2023/06/24 12:30:12;;;;;;;4.43;3.40;;;29.20;63.20;;;;;;5075898;28;20459;-67
2023/06/24 12:32:40;;;;;;;4.20;3.90;;;29.70;64.20;;;;;;5075925;28;20453;-67
2023/06/24 12:35:10;;;;;;;3.60;3.30;;;30.40;59.30;;;;;;5076094;28;20454;-67
2023/06/24 12:37:37;;;;;;;4.67;3.70;;;31.00;56.10;;;;;;5075703;28;20493;-67
2023/06/24 12:40:05;;;;;;;4.73;3.80;;;31.20;54.30;;;;;;5075859;28;20454;-67
2023/06/24 12:42:32;;;;;;;7.60;6.80;;;31.40;51.40;;;;;;5075903;28;20868;-67